createdAt,value
2018-12-23T00:02:19.261Z,100769.81
2018-12-23T00:04:47.561Z,100758.97
2018-12-23T00:07:15.890Z,100758.13
2018-12-23T00:09:44.226Z,100759.63
2018-12-23T00:12:12.608Z,100755.13
2018-12-23T00:14:41.539Z,100754.29
2018-12-23T00:17:09.972Z,100759.13
2018-12-23T00:19:38.374Z,100759.11
2018-12-23T00:22:06.773Z,100765.81
2018-12-23T00:24:35.083Z,100770.48
2018-12-23T00:27:03.388Z,100772.64
2018-12-23T00:29:31.730Z,100767.80
2018-12-23T00:32:00.090Z,100767.16
2018-12-23T00:34:28.458Z,100780.84
2018-12-23T00:36:56.816Z,100785.05
2018-12-23T00:39:25.133Z,100787.72
2018-12-23T00:41:53.486Z,100793.23
2018-12-23T00:44:22.862Z,100792.23
2018-12-23T00:46:51.193Z,100794.39
2018-12-23T00:49:19.575Z,100790.56
2018-12-23T00:51:47.913Z,100794.90
2018-12-23T00:54:16.225Z,100798.77
2018-12-23T00:56:44.562Z,100812.94
2018-12-23T00:59:13.303Z,100818.96
2018-12-23T01:01:41.624Z,100827.63
2018-12-23T01:04:09.949Z,100821.30
2018-12-23T01:06:38.314Z,100833.31
2018-12-23T01:09:06.708Z,100830.14
2018-12-23T01:11:35.056Z,100832.14
2018-12-23T01:14:03.380Z,100835.51
2018-12-23T01:16:31.833Z,100839.47
2018-12-23T01:19:00.237Z,100828.45
2018-12-23T01:21:28.601Z,100845.12
2018-12-23T01:23:56.937Z,100847.33
2018-12-23T01:26:25.295Z,100843.81
2018-12-23T01:28:53.643Z,100844.79
2018-12-23T01:31:21.974Z,100850.50
2018-12-23T01:33:50.358Z,100849.50
2018-12-23T01:36:18.665Z,100841.98
2018-12-23T01:38:46.991Z,100839.30
2018-12-23T01:41:15.932Z,100833.63
2018-12-23T01:43:44.459Z,100836.10
2018-12-23T01:46:13.267Z,100839.78
2018-12-23T01:48:41.662Z,100847.80
2018-12-23T01:51:09.972Z,100854.31
2018-12-23T01:53:38.311Z,100861.19
2018-12-23T01:56:06.641Z,100869.05
2018-12-23T01:58:34.963Z,100876.59
2018-12-23T02:01:03.356Z,100857.37
2018-12-23T02:03:31.773Z,100861.55
2018-12-23T02:06:00.153Z,100861.89
2018-12-23T02:08:28.501Z,100860.38
2018-12-23T02:10:56.903Z,100864.23
2018-12-23T02:13:25.503Z,100868.41
2018-12-23T02:15:53.818Z,100867.23
2018-12-23T02:18:22.145Z,100869.58
2018-12-23T02:20:50.493Z,100855.38
2018-12-23T02:23:18.884Z,100848.04
2018-12-23T02:25:47.220Z,100839.52
2018-12-23T02:28:15.577Z,100849.52
2018-12-23T02:30:43.893Z,100852.22
2018-12-23T02:33:12.673Z,100851.89
2018-12-23T02:35:41.891Z,100842.00
2018-12-23T02:38:10.303Z,100837.80
2018-12-23T02:40:38.714Z,100838.66
2018-12-23T02:43:07.077Z,100841.67
2018-12-23T02:45:35.487Z,100843.98
2018-12-23T02:48:03.810Z,100844.29
2018-12-23T02:50:32.227Z,100848.43
2018-12-23T02:53:00.543Z,100855.94
2018-12-23T02:55:28.882Z,100859.22
2018-12-23T02:57:57.197Z,100858.58
2018-12-23T03:00:25.539Z,100860.09
2018-12-23T03:02:53.880Z,100860.05
2018-12-23T03:05:22.279Z,100866.27
2018-12-23T03:07:50.587Z,100867.14
2018-12-23T03:10:19.054Z,100867.34
2018-12-23T03:12:47.443Z,100871.02
2018-12-23T03:15:17.657Z,100881.70
2018-12-23T03:17:46.067Z,100866.80
2018-12-23T03:20:15.275Z,100878.91
2018-12-23T03:22:43.585Z,100866.06
2018-12-23T03:25:11.917Z,100871.14
2018-12-23T03:27:40.261Z,100866.94
2018-12-23T03:30:08.735Z,100863.92
2018-12-23T03:32:37.067Z,100864.59
2018-12-23T03:35:05.577Z,100865.59
2018-12-23T03:37:34.527Z,100861.80
2018-12-23T03:40:02.916Z,100866.47
2018-12-23T03:42:31.615Z,100865.67
2018-12-23T03:45:00.534Z,100865.47
2018-12-23T03:47:28.916Z,100867.97
2018-12-23T03:49:57.233Z,100859.95
2018-12-23T03:52:25.617Z,100861.05
2018-12-23T03:54:53.912Z,100848.09
2018-12-23T03:57:22.258Z,100855.83
2018-12-23T03:59:50.560Z,100854.83
2018-12-23T04:02:18.914Z,100853.66
2018-12-23T04:04:47.320Z,100850.94
2018-12-23T04:07:15.809Z,100846.09
2018-12-23T04:09:45.278Z,100844.87
2018-12-23T04:12:14.275Z,100851.38
2018-12-23T04:14:42.713Z,100851.16
2018-12-23T04:17:11.049Z,100849.33
2018-12-23T04:19:39.958Z,100846.87
2018-12-23T04:22:08.310Z,100846.38
2018-12-23T04:24:36.670Z,100844.75
2018-12-23T04:27:05.116Z,100841.59
2018-12-23T04:29:33.436Z,100843.13
2018-12-23T04:32:01.857Z,100846.81
2018-12-23T04:34:30.193Z,100840.47
2018-12-23T04:36:58.539Z,100841.01
2018-12-23T04:39:26.928Z,100845.65
2018-12-23T04:41:55.244Z,100839.17
2018-12-23T04:44:23.570Z,100844.52
2018-12-23T04:46:51.901Z,100847.89
2018-12-23T04:49:20.247Z,100847.80
2018-12-23T04:51:48.565Z,100848.59
2018-12-23T04:54:16.979Z,100848.27
2018-12-23T04:56:45.322Z,100840.95
2018-12-23T04:59:14.366Z,100846.13
2018-12-23T05:01:42.664Z,100839.41
2018-12-23T05:04:11.011Z,100848.27
2018-12-23T05:06:43.380Z,100845.86
2018-12-23T05:09:09.687Z,100834.63
2018-12-23T05:11:38.058Z,100833.62
2018-12-23T05:14:06.410Z,100836.13
2018-12-23T05:16:34.735Z,100834.28
2018-12-23T05:19:03.082Z,100838.00
2018-12-23T05:21:31.457Z,100834.12
2018-12-23T05:23:59.820Z,100836.08
2018-12-23T05:26:28.220Z,100834.74
2018-12-23T05:28:56.566Z,100836.57
2018-12-23T05:31:24.879Z,100837.37
2018-12-23T05:33:53.219Z,100838.48
2018-12-23T05:36:21.570Z,100842.03
2018-12-23T05:38:49.897Z,100834.85
2018-12-23T05:41:18.845Z,100835.02
2018-12-23T05:43:47.239Z,100838.98
2018-12-23T05:46:15.697Z,100833.02
2018-12-23T05:48:44.035Z,100841.82
2018-12-23T05:51:12.922Z,100835.02
2018-12-23T05:53:41.243Z,100840.87
2018-12-23T05:56:09.590Z,100840.53
2018-12-23T05:58:37.915Z,100847.16
2018-12-23T06:01:06.234Z,100841.98
2018-12-23T06:03:34.589Z,100844.36
2018-12-23T06:06:02.970Z,100845.16
2018-12-23T06:08:31.316Z,100849.83
2018-12-23T06:10:59.666Z,100844.16
2018-12-23T06:13:27.996Z,100848.15
2018-12-23T06:15:56.642Z,100851.14
2018-12-23T06:18:24.971Z,100865.84
2018-12-23T06:20:53.423Z,100863.52
2018-12-23T06:23:21.825Z,100868.24
2018-12-23T06:25:50.152Z,100868.89
2018-12-23T06:28:18.461Z,100864.72
2018-12-23T06:30:46.783Z,100857.72
2018-12-23T06:33:15.189Z,100857.37
2018-12-23T06:35:43.514Z,100856.73
2018-12-23T06:38:11.950Z,100856.17
2018-12-23T06:40:40.255Z,100861.02
2018-12-23T06:43:08.604Z,100865.02
2018-12-23T06:45:36.945Z,100859.55
2018-12-23T06:48:05.268Z,100860.17
2018-12-23T06:50:33.616Z,100858.34
2018-12-23T06:53:02.012Z,100858.39
2018-12-23T06:55:30.428Z,100853.83
2018-12-23T06:57:58.850Z,100860.00
2018-12-23T07:00:27.257Z,100860.49
2018-12-23T07:02:55.597Z,100857.67
2018-12-23T07:05:23.918Z,100860.89
2018-12-23T07:07:52.270Z,100868.06
2018-12-23T07:10:20.637Z,100865.85
2018-12-23T07:12:48.983Z,100865.18
2018-12-23T07:15:17.297Z,100865.34
2018-12-23T07:17:45.624Z,100860.17
2018-12-23T07:20:13.955Z,100867.63
2018-12-23T07:22:42.317Z,100864.95
2018-12-23T07:25:11.394Z,100871.13
2018-12-23T07:27:39.693Z,100877.48
2018-12-23T07:30:08.078Z,100879.19
2018-12-23T07:32:36.733Z,100876.98
2018-12-23T07:35:05.304Z,100879.88
2018-12-23T07:37:33.653Z,100876.73
2018-12-23T07:40:02.061Z,100880.04
2018-12-23T07:42:30.392Z,100881.71
2018-12-23T07:44:58.746Z,100879.88
2018-12-23T07:47:27.051Z,100880.75
2018-12-23T07:49:55.401Z,100877.99
2018-12-23T07:52:23.716Z,100870.60
2018-12-23T07:54:52.057Z,100864.97
2018-12-23T07:57:20.398Z,100861.77
2018-12-23T07:59:48.719Z,100865.05
2018-12-23T08:02:17.054Z,100864.95
2018-12-23T08:04:45.407Z,100866.48
2018-12-23T08:07:13.741Z,100868.31
2018-12-23T08:09:42.077Z,100868.48
2018-12-23T08:12:10.599Z,100871.47
2018-12-23T08:14:38.952Z,100869.66
2018-12-23T08:17:07.288Z,100871.49
2018-12-23T08:19:35.636Z,100875.83
2018-12-23T08:22:06.105Z,100873.48
2018-12-23T08:24:34.727Z,100873.98
2018-12-23T08:27:03.087Z,100871.97
2018-12-23T08:29:31.421Z,100862.94
2018-12-23T08:31:59.755Z,100867.79
2018-12-23T08:34:28.091Z,100860.77
2018-12-23T08:36:56.405Z,100864.63
2018-12-23T08:39:24.805Z,100867.16
2018-12-23T08:41:53.198Z,100863.80
2018-12-23T08:44:21.476Z,100863.97
2018-12-23T08:46:49.827Z,100865.30
2018-12-23T08:49:18.186Z,100863.30
2018-12-23T08:51:46.533Z,100864.98
2018-12-23T08:54:14.921Z,100861.13
2018-12-23T08:56:43.255Z,100855.27
2018-12-23T08:59:11.663Z,100860.94
2018-12-23T09:01:40.021Z,100862.45
2018-12-23T09:04:08.675Z,100857.76
2018-12-23T09:06:37.336Z,100861.11
2018-12-23T09:09:06.016Z,100864.14
2018-12-23T09:11:42.638Z,100852.59
2018-12-23T09:14:04.689Z,100854.27
2018-12-23T09:16:33.247Z,100844.89
2018-12-23T09:19:01.603Z,100841.38
2018-12-23T09:21:30.014Z,100837.71
2018-12-23T09:23:58.367Z,100833.87
2018-12-23T09:26:26.743Z,100827.67
2018-12-23T09:28:55.082Z,100830.67
2018-12-23T09:31:23.421Z,100835.68
2018-12-23T09:33:51.751Z,100838.38
2018-12-23T09:36:20.124Z,100832.84
2018-12-23T09:38:48.416Z,100837.83
2018-12-23T09:41:17.021Z,100825.11
2018-12-23T09:43:46.804Z,100820.56
2018-12-23T09:46:16.169Z,100819.36
2018-12-23T09:48:45.444Z,100819.06
2018-12-23T09:51:13.921Z,100814.88
2018-12-23T09:53:42.232Z,100805.92
2018-12-23T09:56:10.582Z,100810.44
2018-12-23T09:58:38.906Z,100809.10
2018-12-23T10:01:07.524Z,100804.75
2018-12-23T10:03:35.876Z,100799.09
2018-12-23T10:06:04.284Z,100793.02
2018-12-23T10:08:32.700Z,100793.35
2018-12-23T10:11:01.052Z,100793.66
2018-12-23T10:13:29.378Z,100787.64
2018-12-23T10:15:57.739Z,100783.44
2018-12-23T10:18:26.071Z,100775.25
2018-12-23T10:20:54.417Z,100775.05
2018-12-23T10:23:22.772Z,100764.14
2018-12-23T10:25:51.154Z,100763.13
2018-12-23T10:28:19.469Z,100752.04
2018-12-23T10:30:47.806Z,100755.33
2018-12-23T10:33:16.256Z,100742.61
2018-12-23T10:35:44.603Z,100741.70
2018-12-23T10:38:18.348Z,100744.50
2018-12-23T10:40:43.331Z,100730.09
2018-12-23T10:43:11.663Z,100727.50
2018-12-23T10:45:40.028Z,100720.52
2018-12-23T10:48:08.420Z,100719.28
2018-12-23T10:50:37.216Z,100713.17
2018-12-23T10:53:05.619Z,100708.83
2018-12-23T10:55:34.789Z,100704.72
2018-12-23T10:58:03.160Z,100698.70
2018-12-23T11:00:32.306Z,100691.63
2018-12-23T11:03:01.221Z,100683.17
2018-12-23T11:05:29.877Z,100673.18
2018-12-23T11:07:58.706Z,100672.06
2018-12-23T11:10:28.799Z,100662.47
2018-12-23T11:12:57.881Z,100657.54
2018-12-23T11:15:26.690Z,100651.16
2018-12-23T11:17:55.366Z,100643.58
2018-12-23T11:20:24.196Z,100639.12
2018-12-23T11:22:53.088Z,100636.94
2018-12-23T11:25:21.433Z,100624.17
2018-12-23T11:27:49.811Z,100630.74
2018-12-23T11:30:18.114Z,100614.39
2018-12-23T11:32:46.530Z,100607.31
2018-12-23T11:35:14.997Z,100600.66
2018-12-23T11:37:43.329Z,100603.87
2018-12-23T11:40:11.698Z,100608.06
2018-12-23T11:42:40.014Z,100598.61
2018-12-23T11:45:08.641Z,100595.48
2018-12-23T11:47:36.941Z,100595.25
2018-12-23T11:50:05.421Z,100594.52
2018-12-23T11:52:33.764Z,100593.45
2018-12-23T11:55:02.133Z,100589.75
2018-12-23T11:57:30.460Z,100582.77
2018-12-23T11:59:58.796Z,100580.70
2018-12-23T12:02:27.137Z,100571.66
2018-12-23T12:04:55.724Z,100572.16
2018-12-23T12:07:24.035Z,100561.39
2018-12-23T12:09:52.394Z,100558.58
2018-12-23T12:12:20.731Z,100556.03
2018-12-23T12:14:49.086Z,100557.64
2018-12-23T12:17:17.432Z,100550.66
2018-12-23T12:19:45.766Z,100550.86
2018-12-23T12:22:14.623Z,100542.23
2018-12-23T12:24:42.969Z,100541.40
2018-12-23T12:27:11.366Z,100539.12
2018-12-23T12:29:39.715Z,100533.43
2018-12-23T12:32:08.375Z,100520.34
2018-12-23T12:34:36.716Z,100522.70
2018-12-23T12:37:05.052Z,100512.11
2018-12-23T12:39:33.403Z,100510.61
2018-12-23T12:42:01.743Z,100505.70
2018-12-23T12:44:30.084Z,100502.27
2018-12-23T12:46:58.456Z,100508.33
2018-12-23T12:49:26.809Z,100508.09
2018-12-23T12:51:55.179Z,100505.86
2018-12-23T12:54:23.497Z,100494.50
2018-12-23T12:56:51.853Z,100496.55
2018-12-23T12:59:20.223Z,100498.46
2018-12-23T13:01:48.573Z,100495.01
2018-12-23T13:04:16.932Z,100486.53
2018-12-23T13:06:45.279Z,100480.50
2018-12-23T13:09:13.700Z,100473.50
2018-12-23T13:11:42.086Z,100476.19
2018-12-23T13:14:10.481Z,100469.39
2018-12-23T13:16:38.797Z,100457.82
2018-12-23T13:19:07.419Z,100460.92
2018-12-23T13:21:35.737Z,100457.33
2018-12-23T13:24:04.129Z,100448.15
2018-12-23T13:26:32.562Z,100440.57
2018-12-23T13:29:00.873Z,100442.03
2018-12-23T13:31:29.215Z,100437.11
2018-12-23T13:33:57.530Z,100433.35
2018-12-23T13:36:25.856Z,100433.14
2018-12-23T13:38:54.292Z,100427.16
2018-12-23T13:41:28.139Z,100421.94
2018-12-23T13:44:02.089Z,100408.88
2018-12-23T13:49:45.716Z,100389.11
2018-12-23T13:52:19.066Z,100386.48
2018-12-23T13:54:52.820Z,100387.31
2018-12-23T13:57:24.416Z,100378.63
2018-12-23T14:00:01.103Z,100377.94
2018-12-23T14:02:35.885Z,100377.18
2018-12-23T14:05:06.914Z,100366.47
2018-12-23T14:07:39.377Z,100363.20
2018-12-23T14:10:16.476Z,100365.35
2018-12-23T14:12:44.968Z,100358.84
2018-12-23T14:15:13.585Z,100346.30
2018-12-23T14:17:42.111Z,100339.74
2018-12-23T14:20:10.940Z,100338.28
2018-12-23T14:22:39.344Z,100337.09
2018-12-23T14:25:07.667Z,100330.45
2018-12-23T14:27:35.994Z,100313.39
2018-12-23T14:30:09.097Z,100305.03
2018-12-23T14:32:37.612Z,100297.33
2018-12-23T14:35:05.935Z,100286.54
2018-12-23T14:37:34.677Z,100287.42
2018-12-23T14:40:03.141Z,100288.89
2018-12-23T14:42:31.470Z,100281.88
2018-12-23T14:45:00.264Z,100281.88
2018-12-23T14:47:29.133Z,100267.81
2018-12-23T14:49:57.914Z,100267.81
2018-12-23T14:52:26.583Z,100270.14
2018-12-23T14:54:54.913Z,100274.06
2018-12-23T14:57:23.274Z,100267.66
2018-12-23T14:59:51.603Z,100266.55
2018-12-23T15:02:19.964Z,100254.33
2018-12-23T15:04:48.293Z,100249.17
2018-12-23T15:07:16.622Z,100252.88
2018-12-23T15:09:44.992Z,100254.20
2018-12-23T15:12:13.326Z,100245.70
2018-12-23T15:14:41.663Z,100245.69
2018-12-23T15:17:10.033Z,100252.29
2018-12-23T15:19:38.625Z,100225.70
2018-12-23T15:22:06.967Z,100221.78
2018-12-23T15:24:35.302Z,100218.60
2018-12-23T15:27:04.375Z,100228.67
2018-12-23T15:29:32.772Z,100218.02
2018-12-23T15:32:01.126Z,100208.67
2018-12-23T15:34:29.485Z,100203.74
2018-12-23T15:36:57.880Z,100187.22
2018-12-23T15:39:26.371Z,100181.16
2018-12-23T15:41:54.696Z,100187.53
2018-12-23T15:44:23.023Z,100174.52
2018-12-23T15:46:51.361Z,100166.07
2018-12-23T15:49:19.750Z,100186.64
2018-12-23T15:51:48.081Z,100169.88
2018-12-23T15:54:16.448Z,100147.12
2018-12-23T15:56:44.739Z,100148.69
2018-12-23T15:59:13.895Z,100148.38
2018-12-23T16:01:42.229Z,100150.53
2018-12-23T16:04:10.604Z,100140.60
2018-12-23T16:06:39.041Z,100130.16
2018-12-23T16:09:07.461Z,100124.40
2018-12-23T16:11:36.229Z,100121.98
2018-12-23T16:14:04.716Z,100124.97
2018-12-23T16:16:33.093Z,100117.78
2018-12-23T16:19:01.681Z,100132.47
2018-12-23T16:21:30.043Z,100116.55
2018-12-23T16:23:58.364Z,100096.23
2018-12-23T16:26:26.738Z,100085.73
2018-12-23T16:28:55.055Z,100087.65
2018-12-23T16:31:23.392Z,100080.20
2018-12-23T16:33:51.720Z,100081.93
2018-12-23T16:36:20.056Z,100071.55
2018-12-23T16:38:48.404Z,100068.98
2018-12-23T16:41:16.818Z,100062.25
2018-12-23T16:43:45.229Z,100071.67
2018-12-23T16:46:14.108Z,100064.18
2018-12-23T16:48:42.425Z,100051.32
2018-12-23T16:51:10.763Z,100043.30
2018-12-23T16:53:39.118Z,100039.19
2018-12-23T16:56:07.601Z,100034.69
2018-12-23T16:58:36.831Z,100035.39
2018-12-23T17:01:05.184Z,100031.38
2018-12-23T17:03:33.552Z,100026.91
2018-12-23T17:06:01.872Z,100033.86
2018-12-23T17:08:30.225Z,100024.53
2018-12-23T17:10:58.815Z,100033.53
2018-12-23T17:13:27.146Z,100021.17
2018-12-23T17:15:55.490Z,100015.31
2018-12-23T17:18:23.875Z,100022.53
2018-12-23T17:20:52.184Z,100010.25
2018-12-23T17:23:20.523Z,100022.23
2018-12-23T17:25:48.873Z,100018.27
2018-12-23T17:28:17.214Z,100015.73
2018-12-23T17:30:45.626Z,100008.38
2018-12-23T17:33:14.501Z,100004.49
2018-12-23T17:35:42.810Z,99998.95
2018-12-23T17:38:11.150Z,99990.77
2018-12-23T17:40:39.520Z,99988.26
2018-12-23T17:43:07.879Z,99988.83
2018-12-23T17:45:36.185Z,99983.04
2018-12-23T17:48:04.595Z,99979.03
2018-12-23T17:50:32.932Z,99981.64
2018-12-23T17:53:02.290Z,99995.96
2018-12-23T17:55:30.619Z,99991.19
2018-12-23T17:57:58.931Z,99988.80
2018-12-23T18:00:27.304Z,99978.80
2018-12-23T18:02:55.631Z,99970.29
2018-12-23T18:05:23.986Z,99973.02
2018-12-23T18:07:52.333Z,99974.01
2018-12-23T18:10:24.936Z,99967.16
2018-12-23T18:12:51.119Z,99959.20
2018-12-23T18:15:19.554Z,99966.55
2018-12-23T18:17:47.887Z,99956.24
2018-12-23T18:20:17.192Z,99958.92
2018-12-23T18:22:45.508Z,99950.76
2018-12-23T18:25:14.270Z,99942.52
2018-12-23T18:27:42.598Z,99938.58
2018-12-23T18:30:10.945Z,99937.56
2018-12-23T18:32:39.605Z,99926.98
2018-12-23T18:35:08.381Z,99918.33
2018-12-23T18:37:36.878Z,99920.17
2018-12-23T18:40:06.088Z,99926.41
2018-12-23T18:42:34.683Z,99934.63
2018-12-23T18:45:03.072Z,99930.57
2018-12-23T18:47:31.416Z,99925.38
2018-12-23T18:49:59.767Z,99921.32
2018-12-23T18:52:28.074Z,99923.89
2018-12-23T18:54:56.429Z,99905.98
2018-12-23T18:57:24.835Z,99907.64
2018-12-23T18:59:53.230Z,99913.67
2018-12-23T19:02:21.820Z,99904.26
2018-12-23T19:04:50.124Z,99897.77
2018-12-23T19:07:18.483Z,99889.86
2018-12-23T19:09:47.454Z,99881.13
2018-12-23T19:15:33.051Z,99884.38
2018-12-23T19:18:06.711Z,99886.91
2018-12-23T19:23:50.665Z,99881.70
2018-12-23T19:29:32.447Z,99879.07
2018-12-23T19:32:05.240Z,99871.33
2018-12-23T19:34:37.990Z,99870.11
2018-12-23T19:37:12.730Z,99865.78
2018-12-23T19:42:52.444Z,99860.81
2018-12-23T19:45:28.138Z,99859.67
2018-12-23T19:51:10.362Z,99856.59
2018-12-23T19:56:55.305Z,99851.43
2018-12-23T20:02:39.527Z,99839.44
2018-12-23T20:08:19.761Z,99829.34
2018-12-23T20:14:00.201Z,99814.32
2018-12-23T20:19:46.553Z,99805.90
2018-12-23T20:25:28.542Z,99806.07
2018-12-23T20:28:03.334Z,99795.73
2018-12-23T20:30:39.050Z,99799.38
2018-12-23T20:36:21.704Z,99790.54
2018-12-23T20:38:55.417Z,99785.66
2018-12-23T20:41:28.929Z,99783.07
2018-12-23T20:44:02.435Z,99774.41
2018-12-23T20:49:47.417Z,99763.66
2018-12-23T20:55:31.947Z,99754.34
2018-12-23T20:58:02.829Z,99756.84
2018-12-23T21:03:48.395Z,99759.70
2018-12-23T21:06:22.649Z,99740.88
2018-12-23T21:08:55.893Z,99745.41
2018-12-23T21:11:29.578Z,99730.47
2018-12-23T21:16:46.030Z,99745.07
2018-12-23T21:19:19.589Z,99745.07
2018-12-23T21:25:11.051Z,99743.97
2018-12-23T21:27:41.284Z,99749.28
2018-12-23T21:30:13.866Z,99745.31
2018-12-23T21:35:56.226Z,99749.98
2018-12-23T21:41:39.419Z,99746.50
2018-12-23T21:47:26.012Z,99743.34
2018-12-23T21:49:57.002Z,99742.61
2018-12-23T21:52:30.802Z,99740.97
2018-12-23T21:58:13.683Z,99721.25
2018-12-23T22:00:47.451Z,99724.55
2018-12-23T22:03:21.232Z,99726.52
2018-12-23T22:06:05.018Z,99729.20
2018-12-23T22:08:35.809Z,99724.14
2018-12-23T22:11:08.402Z,99716.20
2018-12-23T22:13:36.767Z,99712.19
2018-12-23T22:16:05.074Z,99709.38
2018-12-23T22:18:33.428Z,99707.34
2018-12-23T22:21:01.777Z,99710.00
2018-12-23T22:23:30.130Z,99693.26
2018-12-23T22:25:58.483Z,99695.55
2018-12-23T22:28:26.904Z,99683.13
2018-12-23T22:30:55.249Z,99679.02
2018-12-23T22:33:23.624Z,99684.47
2018-12-23T22:35:51.929Z,99688.45
2018-12-23T22:38:20.281Z,99689.50
2018-12-23T22:40:48.665Z,99694.34
2018-12-23T22:43:16.991Z,99688.63
2018-12-23T22:45:45.305Z,99674.67
2018-12-23T22:48:14.394Z,99674.06
2018-12-23T22:50:43.315Z,99676.70
2018-12-23T22:53:11.811Z,99662.66
2018-12-23T22:55:40.119Z,99671.33
2018-12-23T22:58:08.460Z,99667.40
2018-12-23T23:00:36.805Z,99665.22
2018-12-23T23:03:09.231Z,99657.26
2018-12-23T23:05:35.662Z,99661.87
2018-12-23T23:08:04.515Z,99655.97
2018-12-23T23:13:34.829Z,99639.85
2018-12-23T23:16:03.163Z,99635.44
2018-12-23T23:18:31.517Z,99651.78
2018-12-23T23:20:59.849Z,99669.75
2018-12-23T23:23:28.264Z,99668.97
2018-12-23T23:25:56.993Z,99691.14
2018-12-23T23:28:25.353Z,99692.79
2018-12-23T23:30:53.757Z,99691.91
2018-12-23T23:33:24.144Z,99699.28
2018-12-23T23:35:52.708Z,99717.17
2018-12-23T23:38:21.049Z,99749.27
2018-12-23T23:40:49.396Z,99796.59
2018-12-23T23:43:17.844Z,99819.33
2018-12-23T23:45:46.344Z,99846.08
2018-12-23T23:48:15.059Z,99843.03
2018-12-23T23:50:43.406Z,99848.24
2018-12-23T23:53:11.714Z,99859.03
2018-12-23T23:55:40.046Z,99863.59
2018-12-23T23:58:08.376Z,99884.23
